sensor_id;sensor_type;location;lat;lon;timestamp;pressure;altitude;pressure_sealevel;temperature;humidity
12536;BME280;6334;48.696;2.114;2023-05-07T00:01:32;99827.09;;;15.98;77.54
12536;BME280;6334;48.696;2.114;2023-05-07T00:04:03;99838.70;;;15.09;81.51
12536;BME280;6334;48.696;2.114;2023-05-07T00:06:34;99841.83;;;15.23;80.99
12536;BME280;6334;48.696;2.114;2023-05-07T00:09:04;99841.52;;;15.67;79.26
12536;BME280;6334;48.696;2.114;2023-05-07T00:11:34;99852.92;;;15.22;81.02
12536;BME280;6334;48.696;2.114;2023-05-07T00:14:05;99846.06;;;15.60;79.88
12536;BME280;6334;48.696;2.114;2023-05-07T00:16:35;99837.63;;;15.37;79.22
12536;BME280;6334;48.696;2.114;2023-05-07T00:19:06;99839.05;;;15.57;78.72
12536;BME280;6334;48.696;2.114;2023-05-07T00:21:36;99837.37;;;15.62;79.75
12536;BME280;6334;48.696;2.114;2023-05-07T00:24:07;99836.39;;;15.65;79.66
12536;BME280;6334;48.696;2.114;2023-05-07T00:26:37;99840.56;;;15.08;80.85
12536;BME280;6334;48.696;2.114;2023-05-07T00:29:08;99840.47;;;15.13;81.01
12536;BME280;6334;48.696;2.114;2023-05-07T00:31:39;99837.50;;;15.15;80.76
12536;BME280;6334;48.696;2.114;2023-05-07T00:34:10;99838.39;;;14.85;81.43
12536;BME280;6334;48.696;2.114;2023-05-07T00:36:40;99836.36;;;14.75;82.03
12536;BME280;6334;48.696;2.114;2023-05-07T00:39:10;99838.38;;;14.82;82.32
12536;BME280;6334;48.696;2.114;2023-05-07T00:41:40;99830.84;;;15.11;80.82
12536;BME280;6334;48.696;2.114;2023-05-07T00:44:10;99823.91;;;15.00;80.86
12536;BME280;6334;48.696;2.114;2023-05-07T00:46:41;99800.11;;;15.34;79.21
12536;BME280;6334;48.696;2.114;2023-05-07T00:49:10;99794.23;;;15.60;78.56
12536;BME280;6334;48.696;2.114;2023-05-07T00:51:41;99797.16;;;15.82;78.67
12536;BME280;6334;48.696;2.114;2023-05-07T00:54:13;99787.24;;;15.80;78.39
12536;BME280;6334;48.696;2.114;2023-05-07T00:56:44;99787.14;;;15.52;79.58
12536;BME280;6334;48.696;2.114;2023-05-07T00:59:15;99788.72;;;15.58;79.07
12536;BME280;6334;48.696;2.114;2023-05-07T01:01:45;99789.03;;;15.42;80.39
12536;BME280;6334;48.696;2.114;2023-05-07T01:04:15;99785.78;;;15.39;79.98
12536;BME280;6334;48.696;2.114;2023-05-07T01:06:45;99787.44;;;15.37;80.27
12536;BME280;6334;48.696;2.114;2023-05-07T01:09:15;99790.90;;;15.43;79.04
12536;BME280;6334;48.696;2.114;2023-05-07T01:11:47;99784.14;;;15.82;77.83
12536;BME280;6334;48.696;2.114;2023-05-07T01:14:16;99782.73;;;15.82;78.59
12536;BME280;6334;48.696;2.114;2023-05-07T01:16:47;99780.53;;;15.80;78.07
12536;BME280;6334;48.696;2.114;2023-05-07T01:19:18;99782.90;;;15.72;77.73
12536;BME280;6334;48.696;2.114;2023-05-07T01:21:49;99785.97;;;15.43;78.77
12536;BME280;6334;48.696;2.114;2023-05-07T01:24:20;99784.62;;;15.34;79.74
12536;BME280;6334;48.696;2.114;2023-05-07T01:26:51;99790.81;;;15.20;80.12
12536;BME280;6334;48.696;2.114;2023-05-07T01:29:22;99792.92;;;15.07;80.71
12536;BME280;6334;48.696;2.114;2023-05-07T01:31:53;99797.66;;;15.15;80.54
12536;BME280;6334;48.696;2.114;2023-05-07T01:34:23;99795.95;;;15.26;79.98
12536;BME280;6334;48.696;2.114;2023-05-07T01:36:53;99797.64;;;15.35;79.83
12536;BME280;6334;48.696;2.114;2023-05-07T01:39:27;99797.57;;;15.49;79.38
12536;BME280;6334;48.696;2.114;2023-05-07T01:41:57;99800.55;;;15.26;80.05
12536;BME280;6334;48.696;2.114;2023-05-07T01:44:27;99801.25;;;15.26;80.17
12536;BME280;6334;48.696;2.114;2023-05-07T01:46:57;99801.85;;;15.40;79.32
12536;BME280;6334;48.696;2.114;2023-05-07T01:49:28;99798.53;;;15.57;80.26
12536;BME280;6334;48.696;2.114;2023-05-07T01:51:59;99799.24;;;15.51;79.82
12536;BME280;6334;48.696;2.114;2023-05-07T01:54:32;99792.58;;;15.27;81.18
12536;BME280;6334;48.696;2.114;2023-05-07T01:57:04;99791.44;;;15.70;79.32
12536;BME280;6334;48.696;2.114;2023-05-07T01:59:35;99789.94;;;15.65;79.77
12536;BME280;6334;48.696;2.114;2023-05-07T02:02:07;99795.80;;;15.56;80.30
12536;BME280;6334;48.696;2.114;2023-05-07T02:04:38;99795.77;;;15.64;79.12
12536;BME280;6334;48.696;2.114;2023-05-07T02:07:08;99797.18;;;15.41;80.04
12536;BME280;6334;48.696;2.114;2023-05-07T02:09:38;99793.36;;;15.47;79.90
12536;BME280;6334;48.696;2.114;2023-05-07T02:12:08;99798.65;;;14.99;81.69
12536;BME280;6334;48.696;2.114;2023-05-07T02:14:39;99796.38;;;15.04;81.42
12536;BME280;6334;48.696;2.114;2023-05-07T02:17:09;99799.64;;;15.29;80.73
12536;BME280;6334;48.696;2.114;2023-05-07T02:19:42;99800.66;;;15.72;78.37
12536;BME280;6334;48.696;2.114;2023-05-07T02:22:13;99812.42;;;15.72;78.14
12536;BME280;6334;48.696;2.114;2023-05-07T02:24:44;99823.33;;;15.05;81.06
12536;BME280;6334;48.696;2.114;2023-05-07T02:27:14;99826.07;;;15.35;80.60
12536;BME280;6334;48.696;2.114;2023-05-07T02:29:44;99827.22;;;15.36;79.95
12536;BME280;6334;48.696;2.114;2023-05-07T02:32:15;99825.53;;;15.04;81.20
12536;BME280;6334;48.696;2.114;2023-05-07T02:34:46;99822.97;;;15.06;81.32
12536;BME280;6334;48.696;2.114;2023-05-07T02:37:16;99816.28;;;15.14;80.67
12536;BME280;6334;48.696;2.114;2023-05-07T02:39:47;99815.16;;;15.50;80.20
12536;BME280;6334;48.696;2.114;2023-05-07T02:42:18;99820.48;;;15.44;79.50
12536;BME280;6334;48.696;2.114;2023-05-07T02:44:50;99824.31;;;15.42;80.73
12536;BME280;6334;48.696;2.114;2023-05-07T02:47:21;99831.17;;;15.25;80.87
12536;BME280;6334;48.696;2.114;2023-05-07T02:49:52;99834.39;;;15.15;81.55
12536;BME280;6334;48.696;2.114;2023-05-07T02:52:23;99833.22;;;14.85;82.45
12536;BME280;6334;48.696;2.114;2023-05-07T02:54:54;99831.90;;;14.81;82.71
12536;BME280;6334;48.696;2.114;2023-05-07T02:57:26;99834.23;;;14.76;82.58
12536;BME280;6334;48.696;2.114;2023-05-07T02:59:57;99827.58;;;14.77;82.67
12536;BME280;6334;48.696;2.114;2023-05-07T03:02:28;99824.64;;;15.06;81.39
12536;BME280;6334;48.696;2.114;2023-05-07T03:04:59;99820.06;;;15.27;80.76
12536;BME280;6334;48.696;2.114;2023-05-07T03:07:30;99817.39;;;14.97;81.50
12536;BME280;6334;48.696;2.114;2023-05-07T03:10:00;99812.89;;;15.19;80.56
12536;BME280;6334;48.696;2.114;2023-05-07T03:12:31;99818.27;;;15.18;80.87
12536;BME280;6334;48.696;2.114;2023-05-07T03:15:02;99818.87;;;15.27;80.30
12536;BME280;6334;48.696;2.114;2023-05-07T03:17:33;99822.68;;;15.06;81.61
12536;BME280;6334;48.696;2.114;2023-05-07T03:20:04;99812.09;;;15.12;81.22
12536;BME280;6334;48.696;2.114;2023-05-07T03:22:34;99821.05;;;14.95;81.57
12536;BME280;6334;48.696;2.114;2023-05-07T03:25:04;99818.06;;;15.04;82.10
12536;BME280;6334;48.696;2.114;2023-05-07T03:27:35;99829.81;;;14.76;82.32
12536;BME280;6334;48.696;2.114;2023-05-07T03:30:05;99828.64;;;14.67;82.80
12536;BME280;6334;48.696;2.114;2023-05-07T03:32:35;99824.17;;;14.84;82.13
12536;BME280;6334;48.696;2.114;2023-05-07T03:35:05;99814.46;;;15.32;80.12
12536;BME280;6334;48.696;2.114;2023-05-07T03:37:36;99817.04;;;15.31;80.18
12536;BME280;6334;48.696;2.114;2023-05-07T03:40:09;99821.59;;;15.23;80.11
12536;BME280;6334;48.696;2.114;2023-05-07T03:42:40;99822.54;;;14.78;82.03
12536;BME280;6334;48.696;2.114;2023-05-07T03:45:10;99826.33;;;14.85;82.08
12536;BME280;6334;48.696;2.114;2023-05-07T03:47:41;99824.84;;;14.69;82.76
12536;BME280;6334;48.696;2.114;2023-05-07T03:50:11;99827.32;;;14.96;81.89
12536;BME280;6334;48.696;2.114;2023-05-07T03:52:44;99834.45;;;14.98;81.54
12536;BME280;6334;48.696;2.114;2023-05-07T03:55:13;99834.23;;;14.89;81.96
12536;BME280;6334;48.696;2.114;2023-05-07T03:57:45;99828.62;;;15.10;81.09
12536;BME280;6334;48.696;2.114;2023-05-07T04:00:16;99827.47;;;15.16;80.50
12536;BME280;6334;48.696;2.114;2023-05-07T04:02:48;99834.02;;;14.96;81.45
12536;BME280;6334;48.696;2.114;2023-05-07T04:05:19;99831.22;;;14.76;82.15
12536;BME280;6334;48.696;2.114;2023-05-07T04:07:49;99833.03;;;15.00;81.23
12536;BME280;6334;48.696;2.114;2023-05-07T04:10:20;99839.31;;;15.05;81.31
12536;BME280;6334;48.696;2.114;2023-05-07T04:12:50;99844.23;;;14.70;82.62
12536;BME280;6334;48.696;2.114;2023-05-07T04:15:21;99842.20;;;14.78;82.04
12536;BME280;6334;48.696;2.114;2023-05-07T04:17:51;99839.83;;;14.63;83.11
12536;BME280;6334;48.696;2.114;2023-05-07T04:20:21;99837.73;;;14.55;83.30
12536;BME280;6334;48.696;2.114;2023-05-07T04:22:51;99845.53;;;14.74;82.40
12536;BME280;6334;48.696;2.114;2023-05-07T04:25:22;99849.90;;;14.73;82.92
12536;BME280;6334;48.696;2.114;2023-05-07T04:27:53;99850.23;;;15.14;81.67
12536;BME280;6334;48.696;2.114;2023-05-07T04:30:23;99847.45;;;15.02;81.54
12536;BME280;6334;48.696;2.114;2023-05-07T04:32:52;99855.21;;;14.62;82.95
12536;BME280;6334;48.696;2.114;2023-05-07T04:35:23;99853.36;;;14.81;82.61
12536;BME280;6334;48.696;2.114;2023-05-07T04:37:53;99857.74;;;14.46;83.82
12536;BME280;6334;48.696;2.114;2023-05-07T04:40:24;99856.87;;;14.65;83.01
12536;BME280;6334;48.696;2.114;2023-05-07T04:43:02;99856.38;;;14.64;82.82
12536;BME280;6334;48.696;2.114;2023-05-07T04:45:33;99860.45;;;14.56;83.22
12536;BME280;6334;48.696;2.114;2023-05-07T04:48:04;99861.31;;;14.62;82.75
12536;BME280;6334;48.696;2.114;2023-05-07T04:50:35;99861.73;;;14.53;83.16
12536;BME280;6334;48.696;2.114;2023-05-07T04:55:41;99867.94;;;14.62;82.98
12536;BME280;6334;48.696;2.114;2023-05-07T04:58:12;99865.25;;;14.68;82.70
12536;BME280;6334;48.696;2.114;2023-05-07T05:00:43;99862.69;;;14.58;82.89
12536;BME280;6334;48.696;2.114;2023-05-07T05:03:14;99865.42;;;14.70;82.51
12536;BME280;6334;48.696;2.114;2023-05-07T05:05:45;99864.13;;;14.82;82.04
12536;BME280;6334;48.696;2.114;2023-05-07T05:08:15;99861.55;;;14.79;82.13
12536;BME280;6334;48.696;2.114;2023-05-07T05:10:46;99866.79;;;14.49;83.43
12536;BME280;6334;48.696;2.114;2023-05-07T05:13:21;99873.04;;;14.50;83.62
12536;BME280;6334;48.696;2.114;2023-05-07T05:15:53;99873.11;;;14.53;83.26
12536;BME280;6334;48.696;2.114;2023-05-07T05:18:24;99886.48;;;14.84;82.70
12536;BME280;6334;48.696;2.114;2023-05-07T05:20:53;99882.36;;;14.61;82.97
12536;BME280;6334;48.696;2.114;2023-05-07T05:23:24;99882.28;;;14.46;83.58
12536;BME280;6334;48.696;2.114;2023-05-07T05:25:57;99886.48;;;14.80;82.39
12536;BME280;6334;48.696;2.114;2023-05-07T05:28:28;99887.39;;;14.82;82.42
12536;BME280;6334;48.696;2.114;2023-05-07T05:30:59;99882.86;;;15.03;81.51
12536;BME280;6334;48.696;2.114;2023-05-07T05:33:30;99882.85;;;15.31;80.38
12536;BME280;6334;48.696;2.114;2023-05-07T05:36:03;99881.94;;;15.01;81.33
12536;BME280;6334;48.696;2.114;2023-05-07T05:38:34;99890.05;;;15.14;81.08
12536;BME280;6334;48.696;2.114;2023-05-07T05:41:06;99890.97;;;15.02;81.77
12536;BME280;6334;48.696;2.114;2023-05-07T05:43:35;99885.09;;;15.10;81.38
12536;BME280;6334;48.696;2.114;2023-05-07T05:46:05;99890.80;;;14.96;81.51
12536;BME280;6334;48.696;2.114;2023-05-07T05:48:36;99896.66;;;14.83;82.38
12536;BME280;6334;48.696;2.114;2023-05-07T05:51:06;99895.55;;;14.73;82.93
12536;BME280;6334;48.696;2.114;2023-05-07T05:53:36;99891.77;;;15.08;82.20
12536;BME280;6334;48.696;2.114;2023-05-07T05:56:07;99895.52;;;15.05;81.79
12536;BME280;6334;48.696;2.114;2023-05-07T05:58:36;99899.31;;;14.84;82.66
12536;BME280;6334;48.696;2.114;2023-05-07T06:01:06;99896.75;;;15.12;81.58
12536;BME280;6334;48.696;2.114;2023-05-07T06:03:37;99902.49;;;14.74;83.32
12536;BME280;6334;48.696;2.114;2023-05-07T06:06:07;99906.42;;;14.85;83.38
12536;BME280;6334;48.696;2.114;2023-05-07T06:08:39;99905.20;;;14.78;83.08
12536;BME280;6334;48.696;2.114;2023-05-07T06:11:11;99906.59;;;15.18;82.30
12536;BME280;6334;48.696;2.114;2023-05-07T06:13:41;99903.59;;;15.35;81.36
12536;BME280;6334;48.696;2.114;2023-05-07T06:16:10;99909.13;;;15.10;81.89
12536;BME280;6334;48.696;2.114;2023-05-07T06:18:42;99912.06;;;15.07;82.17
12536;BME280;6334;48.696;2.114;2023-05-07T06:21:13;99912.03;;;15.47;80.90
12536;BME280;6334;48.696;2.114;2023-05-07T06:23:43;99910.59;;;15.19;82.94
12536;BME280;6334;48.696;2.114;2023-05-07T06:26:14;99907.41;;;15.51;81.72
12536;BME280;6334;48.696;2.114;2023-05-07T06:28:46;99907.83;;;15.41;81.68
12536;BME280;6334;48.696;2.114;2023-05-07T06:31:17;99909.53;;;15.55;81.30
12536;BME280;6334;48.696;2.114;2023-05-07T06:33:47;99910.34;;;15.71;79.70
12536;BME280;6334;48.696;2.114;2023-05-07T06:36:16;99918.75;;;15.60;80.40
12536;BME280;6334;48.696;2.114;2023-05-07T06:38:46;99922.44;;;15.58;80.97
12536;BME280;6334;48.696;2.114;2023-05-07T06:41:17;99926.13;;;15.31;81.92
12536;BME280;6334;48.696;2.114;2023-05-07T06:46:22;99924.27;;;15.16;83.23
12536;BME280;6334;48.696;2.114;2023-05-07T06:48:52;99927.73;;;15.02;83.69
12536;BME280;6334;48.696;2.114;2023-05-07T06:51:22;99929.50;;;15.20;82.80
12536;BME280;6334;48.696;2.114;2023-05-07T06:53:53;99934.25;;;14.92;84.29
12536;BME280;6334;48.696;2.114;2023-05-07T06:56:25;99937.89;;;15.04;84.21
12536;BME280;6334;48.696;2.114;2023-05-07T06:58:58;99932.28;;;14.84;84.12
12536;BME280;6334;48.696;2.114;2023-05-07T07:01:30;99940.50;;;15.16;83.42
12536;BME280;6334;48.696;2.114;2023-05-07T07:04:00;99932.14;;;15.44;82.16
12536;BME280;6334;48.696;2.114;2023-05-07T07:06:35;99939.80;;;15.51;82.27
12536;BME280;6334;48.696;2.114;2023-05-07T07:09:04;99938.23;;;15.50;81.96
12536;BME280;6334;48.696;2.114;2023-05-07T07:11:35;99943.20;;;15.34;82.83
12536;BME280;6334;48.696;2.114;2023-05-07T07:14:05;99942.88;;;15.48;81.95
12536;BME280;6334;48.696;2.114;2023-05-07T07:22:47;99954.48;;;15.70;81.82
12536;BME280;6334;48.696;2.114;2023-05-07T07:27:52;99958.22;;;15.33;83.91
12536;BME280;6334;48.696;2.114;2023-05-07T07:30:21;99960.66;;;15.33;83.54
12536;BME280;6334;48.696;2.114;2023-05-07T07:32:52;99958.45;;;15.42;82.98
12536;BME280;6334;48.696;2.114;2023-05-07T07:35:22;99961.64;;;15.62;82.30
12536;BME280;6334;48.696;2.114;2023-05-07T07:37:52;99968.80;;;15.48;83.09
12536;BME280;6334;48.696;2.114;2023-05-07T07:40:23;99967.13;;;15.35;83.96
12536;BME280;6334;48.696;2.114;2023-05-07T07:49:44;99966.60;;;15.69;82.33
12536;BME280;6334;48.696;2.114;2023-05-07T07:52:14;99969.09;;;15.47;83.51
12536;BME280;6334;48.696;2.114;2023-05-07T07:57:28;99977.21;;;15.32;84.27
12536;BME280;6334;48.696;2.114;2023-05-07T07:59:58;99976.76;;;15.35;84.50
12536;BME280;6334;48.696;2.114;2023-05-07T08:02:28;99983.86;;;15.31;84.53
12536;BME280;6334;48.696;2.114;2023-05-07T08:04:59;99982.23;;;15.40;84.00
12536;BME280;6334;48.696;2.114;2023-05-07T08:07:33;99987.92;;;15.38;84.48
12536;BME280;6334;48.696;2.114;2023-05-07T08:10:04;99992.02;;;15.47;83.52
12536;BME280;6334;48.696;2.114;2023-05-07T08:12:36;99991.71;;;15.40;84.19
12536;BME280;6334;48.696;2.114;2023-05-07T08:15:06;99993.92;;;15.49;84.52
12536;BME280;6334;48.696;2.114;2023-05-07T08:17:38;100000.30;;;15.34;84.74
12536;BME280;6334;48.696;2.114;2023-05-07T08:20:07;100002.01;;;15.35;84.47
12536;BME280;6334;48.696;2.114;2023-05-07T08:22:38;100006.95;;;15.35;84.95
12536;BME280;6334;48.696;2.114;2023-05-07T08:25:10;100000.80;;;15.67;83.89
12536;BME280;6334;48.696;2.114;2023-05-07T08:27:41;100006.37;;;15.55;84.16
12536;BME280;6334;48.696;2.114;2023-05-07T08:30:11;100009.09;;;15.68;83.47
12536;BME280;6334;48.696;2.114;2023-05-07T08:32:40;99998.97;;;15.59;83.66
12536;BME280;6334;48.696;2.114;2023-05-07T08:35:11;100005.22;;;15.94;80.86
12536;BME280;6334;48.696;2.114;2023-05-07T08:37:41;100007.13;;;15.96;83.15
12536;BME280;6334;48.696;2.114;2023-05-07T08:40:41;100011.00;;;15.68;83.37
12536;BME280;6334;48.696;2.114;2023-05-07T08:43:13;100002.41;;;15.69;83.20
12536;BME280;6334;48.696;2.114;2023-05-07T08:45:42;100011.20;;;15.95;82.63
12536;BME280;6334;48.696;2.114;2023-05-07T08:48:16;100012.86;;;15.93;83.04
12536;BME280;6334;48.696;2.114;2023-05-07T08:50:47;100009.97;;;15.85;82.87
12536;BME280;6334;48.696;2.114;2023-05-07T08:53:17;100014.44;;;15.86;83.35
12536;BME280;6334;48.696;2.114;2023-05-07T08:55:47;100013.60;;;15.86;83.25
12536;BME280;6334;48.696;2.114;2023-05-07T08:58:17;100016.17;;;15.92;82.81
12536;BME280;6334;48.696;2.114;2023-05-07T09:00:47;100018.69;;;16.24;81.82
12536;BME280;6334;48.696;2.114;2023-05-07T09:03:16;100019.54;;;16.30;82.44
12536;BME280;6334;48.696;2.114;2023-05-07T09:05:52;100012.45;;;16.66;80.10
12536;BME280;6334;48.696;2.114;2023-05-07T09:08:24;100013.05;;;16.72;81.44
12536;BME280;6334;48.696;2.114;2023-05-07T09:10:52;100009.05;;;16.44;81.27
12536;BME280;6334;48.696;2.114;2023-05-07T09:13:21;100014.57;;;16.45;81.73
12536;BME280;6334;48.696;2.114;2023-05-07T09:15:51;100008.12;;;16.78;80.21
12536;BME280;6334;48.696;2.114;2023-05-07T09:18:25;100011.16;;;16.71;80.69
12536;BME280;6334;48.696;2.114;2023-05-07T09:20:54;100014.22;;;16.15;81.96
12536;BME280;6334;48.696;2.114;2023-05-07T09:23:24;100012.52;;;16.85;80.16
12536;BME280;6334;48.696;2.114;2023-05-07T09:25:55;100013.25;;;16.69;80.93
12536;BME280;6334;48.696;2.114;2023-05-07T09:28:25;100012.05;;;16.63;82.86
12536;BME280;6334;48.696;2.114;2023-05-07T09:30:56;100014.70;;;16.87;80.99
12536;BME280;6334;48.696;2.114;2023-05-07T09:36:05;100017.03;;;16.64;81.27
12536;BME280;6334;48.696;2.114;2023-05-07T09:38:34;100020.63;;;17.40;79.91
12536;BME280;6334;48.696;2.114;2023-05-07T09:41:07;100019.72;;;16.98;80.87
12536;BME280;6334;48.696;2.114;2023-05-07T09:43:37;100021.74;;;17.03;79.13
12536;BME280;6334;48.696;2.114;2023-05-07T09:46:16;100018.27;;;17.06;79.01
12536;BME280;6334;48.696;2.114;2023-05-07T09:48:38;100028.81;;;17.50;77.13
12536;BME280;6334;48.696;2.114;2023-05-07T09:51:41;100025.76;;;17.56;77.59
12536;BME280;6334;48.696;2.114;2023-05-07T09:53:40;100019.63;;;17.71;76.03
12536;BME280;6334;48.696;2.114;2023-05-07T09:56:12;100026.09;;;17.52;77.55
12536;BME280;6334;48.696;2.114;2023-05-07T09:58:41;100024.41;;;17.23;78.76
12536;BME280;6334;48.696;2.114;2023-05-07T10:01:12;100023.73;;;17.36;78.69
12536;BME280;6334;48.696;2.114;2023-05-07T10:03:42;100025.97;;;16.92;80.29
12536;BME280;6334;48.696;2.114;2023-05-07T10:06:13;100023.05;;;16.88;80.54
12536;BME280;6334;48.696;2.114;2023-05-07T10:08:43;100026.22;;;17.20;78.87
12536;BME280;6334;48.696;2.114;2023-05-07T10:11:14;100025.68;;;17.08;79.56
12536;BME280;6334;48.696;2.114;2023-05-07T10:13:44;100029.61;;;16.99;79.19
12536;BME280;6334;48.696;2.114;2023-05-07T10:16:15;100026.72;;;16.89;78.97
12536;BME280;6334;48.696;2.114;2023-05-07T10:18:45;100028.11;;;17.42;77.52
12536;BME280;6334;48.696;2.114;2023-05-07T10:21:22;100031.11;;;17.51;78.21
12536;BME280;6334;48.696;2.114;2023-05-07T10:24:03;100031.72;;;17.83;75.63
12536;BME280;6334;48.696;2.114;2023-05-07T10:26:31;100030.56;;;17.50;78.49
12536;BME280;6334;48.696;2.114;2023-05-07T10:29:05;100033.37;;;16.89;79.80
12536;BME280;6334;48.696;2.114;2023-05-07T10:31:42;100031.91;;;17.07;80.27
12536;BME280;6334;48.696;2.114;2023-05-07T10:34:11;100035.25;;;17.10;79.82
12536;BME280;6334;48.696;2.114;2023-05-07T10:36:45;100033.72;;;17.08;79.96
12536;BME280;6334;48.696;2.114;2023-05-07T10:39:15;100034.52;;;17.15;80.53
12536;BME280;6334;48.696;2.114;2023-05-07T10:41:44;100029.70;;;17.29;78.31
12536;BME280;6334;48.696;2.114;2023-05-07T10:44:29;100042.49;;;17.83;78.74
12536;BME280;6334;48.696;2.114;2023-05-07T10:47:07;100034.94;;;18.05;77.32
12536;BME280;6334;48.696;2.114;2023-05-07T10:52:21;100031.38;;;17.71;79.27
12536;BME280;6334;48.696;2.114;2023-05-07T10:57:50;100039.03;;;17.59;79.47
12536;BME280;6334;48.696;2.114;2023-05-07T11:05:31;100040.80;;;18.92;76.28
12536;BME280;6334;48.696;2.114;2023-05-07T11:08:01;100034.75;;;18.54;75.11
12536;BME280;6334;48.696;2.114;2023-05-07T11:13:19;100035.45;;;18.72;74.75
12536;BME280;6334;48.696;2.114;2023-05-07T11:15:48;100036.76;;;18.14;76.45
12536;BME280;6334;48.696;2.114;2023-05-07T11:18:19;100033.97;;;18.39;75.73
12536;BME280;6334;48.696;2.114;2023-05-07T11:20:57;100040.55;;;17.65;77.84
12536;BME280;6334;48.696;2.114;2023-05-07T11:26:06;100041.16;;;17.46;79.10
12536;BME280;6334;48.696;2.114;2023-05-07T11:28:41;100030.83;;;18.07;76.69
12536;BME280;6334;48.696;2.114;2023-05-07T11:31:07;100044.39;;;17.91;76.70
12536;BME280;6334;48.696;2.114;2023-05-07T11:36:13;100045.80;;;18.40;75.15
12536;BME280;6334;48.696;2.114;2023-05-07T11:38:43;100044.58;;;18.47;75.98
12536;BME280;6334;48.696;2.114;2023-05-07T11:41:12;100049.31;;;18.63;75.32
12536;BME280;6334;48.696;2.114;2023-05-07T11:43:56;100050.83;;;18.77;74.33
12536;BME280;6334;48.696;2.114;2023-05-07T11:46:26;100046.80;;;18.86;73.29
12536;BME280;6334;48.696;2.114;2023-05-07T11:48:56;100041.98;;;18.73;74.15
12536;BME280;6334;48.696;2.114;2023-05-07T11:51:26;100047.78;;;18.40;76.80
12536;BME280;6334;48.696;2.114;2023-05-07T11:53:55;100053.28;;;17.47;77.97
12536;BME280;6334;48.696;2.114;2023-05-07T11:56:26;100062.97;;;17.51;78.57
12536;BME280;6334;48.696;2.114;2023-05-07T11:58:56;100065.13;;;17.60;77.24
12536;BME280;6334;48.696;2.114;2023-05-07T12:01:27;100063.98;;;17.35;78.75
12536;BME280;6334;48.696;2.114;2023-05-07T12:03:57;100063.42;;;17.25;79.39
12536;BME280;6334;48.696;2.114;2023-05-07T12:06:27;100064.17;;;17.55;78.98
12536;BME280;6334;48.696;2.114;2023-05-07T12:08:58;100065.27;;;17.65;78.79
12536;BME280;6334;48.696;2.114;2023-05-07T12:11:28;100072.20;;;17.52;79.73
12536;BME280;6334;48.696;2.114;2023-05-07T12:13:58;100070.48;;;17.76;78.66
12536;BME280;6334;48.696;2.114;2023-05-07T12:16:29;100073.58;;;17.80;78.51
12536;BME280;6334;48.696;2.114;2023-05-07T12:18:59;100079.41;;;17.53;81.21
12536;BME280;6334;48.696;2.114;2023-05-07T12:21:30;100088.81;;;17.85;79.02
12536;BME280;6334;48.696;2.114;2023-05-07T12:24:01;100087.21;;;17.62;79.88
12536;BME280;6334;48.696;2.114;2023-05-07T12:26:30;100092.65;;;17.44;80.98
12536;BME280;6334;48.696;2.114;2023-05-07T12:29:00;100096.44;;;17.54;80.59
12536;BME280;6334;48.696;2.114;2023-05-07T12:31:30;100100.98;;;17.51;80.18
12536;BME280;6334;48.696;2.114;2023-05-07T12:34:00;100107.94;;;17.33;81.16
12536;BME280;6334;48.696;2.114;2023-05-07T12:36:39;100111.84;;;17.45;79.55
12536;BME280;6334;48.696;2.114;2023-05-07T12:39:10;100109.47;;;17.44;79.13
12536;BME280;6334;48.696;2.114;2023-05-07T12:41:55;100112.17;;;17.12;81.08
12536;BME280;6334;48.696;2.114;2023-05-07T12:44:25;100104.98;;;17.14;81.40
12536;BME280;6334;48.696;2.114;2023-05-07T12:46:54;100105.58;;;17.37;79.43
12536;BME280;6334;48.696;2.114;2023-05-07T12:49:25;100104.81;;;16.93;80.85
12536;BME280;6334;48.696;2.114;2023-05-07T12:51:55;100098.29;;;17.13;80.84
12536;BME280;6334;48.696;2.114;2023-05-07T12:54:33;100102.01;;;16.98;81.47
12536;BME280;6334;48.696;2.114;2023-05-07T12:57:03;100097.91;;;17.40;79.93
12536;BME280;6334;48.696;2.114;2023-05-07T12:59:39;100102.17;;;17.21;80.82
12536;BME280;6334;48.696;2.114;2023-05-07T13:02:09;100111.92;;;17.32;80.66
12536;BME280;6334;48.696;2.114;2023-05-07T13:04:39;100119.23;;;16.99;81.31
12536;BME280;6334;48.696;2.114;2023-05-07T13:07:09;100125.52;;;16.75;82.69
12536;BME280;6334;48.696;2.114;2023-05-07T13:09:40;100129.75;;;17.12;82.18
12536;BME280;6334;48.696;2.114;2023-05-07T13:12:11;100142.61;;;17.10;82.18
12536;BME280;6334;48.696;2.114;2023-05-07T13:14:41;100144.98;;;16.96;83.16
12536;BME280;6334;48.696;2.114;2023-05-07T13:17:12;100146.92;;;16.83;82.68
12536;BME280;6334;48.696;2.114;2023-05-07T13:19:43;100147.30;;;16.75;83.95
12536;BME280;6334;48.696;2.114;2023-05-07T13:22:13;100145.20;;;17.07;82.14
12536;BME280;6334;48.696;2.114;2023-05-07T13:24:44;100148.03;;;16.95;82.79
12536;BME280;6334;48.696;2.114;2023-05-07T13:27:15;100147.61;;;17.09;81.78
12536;BME280;6334;48.696;2.114;2023-05-07T13:29:46;100144.98;;;16.84;83.14
12536;BME280;6334;48.696;2.114;2023-05-07T13:32:15;100148.48;;;17.15;81.57
12536;BME280;6334;48.696;2.114;2023-05-07T13:34:46;100147.34;;;17.22;81.24
12536;BME280;6334;48.696;2.114;2023-05-07T13:37:16;100144.22;;;17.18;80.87
12536;BME280;6334;48.696;2.114;2023-05-07T13:39:46;100143.52;;;17.06;81.68
12536;BME280;6334;48.696;2.114;2023-05-07T13:42:16;100137.55;;;17.28;81.34
12536;BME280;6334;48.696;2.114;2023-05-07T13:44:47;100135.36;;;17.30;80.59
12536;BME280;6334;48.696;2.114;2023-05-07T13:47:17;100130.07;;;17.56;81.50
12536;BME280;6334;48.696;2.114;2023-05-07T13:49:46;100130.75;;;17.50;80.20
12536;BME280;6334;48.696;2.114;2023-05-07T13:52:17;100130.30;;;17.39;81.86
12536;BME280;6334;48.696;2.114;2023-05-07T13:54:47;100125.09;;;17.91;79.68
12536;BME280;6334;48.696;2.114;2023-05-07T13:57:18;100126.36;;;17.80;79.58
12536;BME280;6334;48.696;2.114;2023-05-07T13:59:48;100128.84;;;17.99;79.93
12536;BME280;6334;48.696;2.114;2023-05-07T14:02:19;100127.63;;;17.93;80.01
12536;BME280;6334;48.696;2.114;2023-05-07T14:04:49;100132.34;;;17.93;79.90
12536;BME280;6334;48.696;2.114;2023-05-07T14:07:19;100131.21;;;18.00;79.04
12536;BME280;6334;48.696;2.114;2023-05-07T14:09:50;100135.17;;;18.19;79.11
12536;BME280;6334;48.696;2.114;2023-05-07T14:12:20;100139.88;;;17.98;79.69